sensor_id;sensor_type;location;lat;lon;timestamp;P1;durP1;ratioP1;P2;durP2;ratioP2
27408;SDS011;20413;50.782;7.152;2022-11-14T00:00:44;16.33;;;9.40;;
27408;SDS011;20413;50.782;7.152;2022-11-14T00:03:10;13.90;;;9.00;;
27408;SDS011;20413;50.782;7.152;2022-11-14T00:05:37;14.52;;;9.65;;
27408;SDS011;20413;50.782;7.152;2022-11-14T00:08:04;18.20;;;9.13;;
27408;SDS011;20413;50.782;7.152;2022-11-14T00:10:30;13.10;;;9.00;;
27408;SDS011;20413;50.782;7.152;2022-11-14T00:12:56;13.48;;;8.50;;
27408;SDS011;20413;50.782;7.152;2022-11-14T00:15:22;15.32;;;8.80;;
27408;SDS011;20413;50.782;7.152;2022-11-14T00:17:48;14.77;;;8.65;;
27408;SDS011;20413;50.782;7.152;2022-11-14T00:20:14;17.00;;;8.38;;
27408;SDS011;20413;50.782;7.152;2022-11-14T00:22:40;15.20;;;8.38;;
27408;SDS011;20413;50.782;7.152;2022-11-14T00:25:06;15.35;;;8.75;;
27408;SDS011;20413;50.782;7.152;2022-11-14T00:27:32;13.10;;;8.50;;
27408;SDS011;20413;50.782;7.152;2022-11-14T00:29:58;13.55;;;8.20;;
27408;SDS011;20413;50.782;7.152;2022-11-14T00:32:24;10.82;;;7.75;;
27408;SDS011;20413;50.782;7.152;2022-11-14T00:34:50;11.35;;;7.60;;
27408;SDS011;20413;50.782;7.152;2022-11-14T00:37:16;13.27;;;8.07;;
27408;SDS011;20413;50.782;7.152;2022-11-14T00:39:42;12.10;;;8.05;;
27408;SDS011;20413;50.782;7.152;2022-11-14T00:42:08;11.55;;;7.68;;
27408;SDS011;20413;50.782;7.152;2022-11-14T00:44:34;14.38;;;8.07;;
27408;SDS011;20413;50.782;7.152;2022-11-14T00:47:00;12.82;;;8.00;;
27408;SDS011;20413;50.782;7.152;2022-11-14T00:49:26;13.68;;;8.40;;
27408;SDS011;20413;50.782;7.152;2022-11-14T00:51:52;11.57;;;7.97;;
27408;SDS011;20413;50.782;7.152;2022-11-14T00:54:19;11.85;;;7.43;;
27408;SDS011;20413;50.782;7.152;2022-11-14T00:56:45;12.77;;;8.20;;
27408;SDS011;20413;50.782;7.152;2022-11-14T00:59:11;14.98;;;7.60;;
27408;SDS011;20413;50.782;7.152;2022-11-14T01:01:37;13.30;;;7.85;;
27408;SDS011;20413;50.782;7.152;2022-11-14T01:04:03;14.10;;;7.80;;
27408;SDS011;20413;50.782;7.152;2022-11-14T01:06:29;14.85;;;7.32;;
27408;SDS011;20413;50.782;7.152;2022-11-14T01:08:55;12.88;;;7.05;;
27408;SDS011;20413;50.782;7.152;2022-11-14T01:11:21;13.82;;;7.88;;
27408;SDS011;20413;50.782;7.152;2022-11-14T01:13:47;11.93;;;7.60;;
27408;SDS011;20413;50.782;7.152;2022-11-14T01:16:13;13.13;;;7.72;;
27408;SDS011;20413;50.782;7.152;2022-11-14T01:18:40;13.13;;;7.50;;
27408;SDS011;20413;50.782;7.152;2022-11-14T01:21:07;15.32;;;7.45;;
27408;SDS011;20413;50.782;7.152;2022-11-14T01:23:33;10.80;;;7.50;;
27408;SDS011;20413;50.782;7.152;2022-11-14T01:26:05;12.90;;;7.47;;
27408;SDS011;20413;50.782;7.152;2022-11-14T01:28:31;11.82;;;7.68;;
27408;SDS011;20413;50.782;7.152;2022-11-14T01:31:07;10.50;;;7.35;;
27408;SDS011;20413;50.782;7.152;2022-11-14T01:33:34;11.10;;;7.30;;
27408;SDS011;20413;50.782;7.152;2022-11-14T01:36:00;15.57;;;8.30;;
27408;SDS011;20413;50.782;7.152;2022-11-14T01:38:26;17.73;;;9.50;;
27408;SDS011;20413;50.782;7.152;2022-11-14T01:40:52;15.10;;;8.98;;
27408;SDS011;20413;50.782;7.152;2022-11-14T01:45:49;13.88;;;8.02;;
27408;SDS011;20413;50.782;7.152;2022-11-14T01:48:28;13.70;;;8.00;;
27408;SDS011;20413;50.782;7.152;2022-11-14T01:50:56;12.77;;;7.57;;
27408;SDS011;20413;50.782;7.152;2022-11-14T01:53:23;12.13;;;7.25;;
27408;SDS011;20413;50.782;7.152;2022-11-14T01:55:50;10.75;;;7.20;;
27408;SDS011;20413;50.782;7.152;2022-11-14T01:58:17;10.63;;;7.50;;
27408;SDS011;20413;50.782;7.152;2022-11-14T02:00:43;11.38;;;7.07;;
27408;SDS011;20413;50.782;7.152;2022-11-14T02:03:10;10.43;;;7.20;;
27408;SDS011;20413;50.782;7.152;2022-11-14T02:05:38;10.70;;;6.78;;
27408;SDS011;20413;50.782;7.152;2022-11-14T02:08:04;11.55;;;7.38;;
27408;SDS011;20413;50.782;7.152;2022-11-14T02:10:30;10.85;;;6.80;;
27408;SDS011;20413;50.782;7.152;2022-11-14T02:12:56;11.20;;;7.20;;
27408;SDS011;20413;50.782;7.152;2022-11-14T02:15:22;16.10;;;7.65;;
27408;SDS011;20413;50.782;7.152;2022-11-14T02:17:49;11.68;;;6.75;;
27408;SDS011;20413;50.782;7.152;2022-11-14T02:22:44;10.93;;;6.63;;
27408;SDS011;20413;50.782;7.152;2022-11-14T02:25:10;10.10;;;5.78;;
27408;SDS011;20413;50.782;7.152;2022-11-14T02:27:38;9.65;;;6.93;;
27408;SDS011;20413;50.782;7.152;2022-11-14T02:30:05;10.52;;;6.65;;
27408;SDS011;20413;50.782;7.152;2022-11-14T02:32:32;10.90;;;6.65;;
27408;SDS011;20413;50.782;7.152;2022-11-14T02:34:58;9.35;;;6.70;;
27408;SDS011;20413;50.782;7.152;2022-11-14T02:37:24;9.90;;;6.38;;
27408;SDS011;20413;50.782;7.152;2022-11-14T02:39:50;12.73;;;6.80;;
27408;SDS011;20413;50.782;7.152;2022-11-14T02:42:16;9.73;;;6.72;;
27408;SDS011;20413;50.782;7.152;2022-11-14T02:44:42;9.10;;;6.10;;
27408;SDS011;20413;50.782;7.152;2022-11-14T02:47:08;10.68;;;6.47;;
27408;SDS011;20413;50.782;7.152;2022-11-14T02:49:34;11.52;;;6.07;;
27408;SDS011;20413;50.782;7.152;2022-11-14T02:52:00;8.05;;;5.68;;
27408;SDS011;20413;50.782;7.152;2022-11-14T02:54:26;9.07;;;6.40;;
27408;SDS011;20413;50.782;7.152;2022-11-14T02:56:52;8.32;;;6.07;;
27408;SDS011;20413;50.782;7.152;2022-11-14T02:59:18;10.75;;;6.32;;
27408;SDS011;20413;50.782;7.152;2022-11-14T03:01:44;10.70;;;6.95;;
27408;SDS011;20413;50.782;7.152;2022-11-14T03:04:10;9.73;;;6.50;;
27408;SDS011;20413;50.782;7.152;2022-11-14T03:06:36;10.23;;;6.78;;
27408;SDS011;20413;50.782;7.152;2022-11-14T03:09:02;10.88;;;6.75;;
27408;SDS011;20413;50.782;7.152;2022-11-14T03:11:28;12.43;;;7.00;;
27408;SDS011;20413;50.782;7.152;2022-11-14T03:13:55;10.02;;;6.85;;
27408;SDS011;20413;50.782;7.152;2022-11-14T03:16:21;12.45;;;6.53;;
27408;SDS011;20413;50.782;7.152;2022-11-14T03:18:47;10.38;;;6.38;;
27408;SDS011;20413;50.782;7.152;2022-11-14T03:21:15;9.55;;;6.43;;
27408;SDS011;20413;50.782;7.152;2022-11-14T03:23:41;10.00;;;6.72;;
27408;SDS011;20413;50.782;7.152;2022-11-14T03:26:09;9.32;;;5.47;;
27408;SDS011;20413;50.782;7.152;2022-11-14T03:28:36;8.23;;;5.37;;
27408;SDS011;20413;50.782;7.152;2022-11-14T03:31:02;7.50;;;5.10;;
27408;SDS011;20413;50.782;7.152;2022-11-14T03:33:29;11.75;;;6.13;;
27408;SDS011;20413;50.782;7.152;2022-11-14T03:35:55;8.70;;;6.13;;
27408;SDS011;20413;50.782;7.152;2022-11-14T03:38:21;8.55;;;5.63;;
27408;SDS011;20413;50.782;7.152;2022-11-14T03:40:48;11.13;;;6.15;;
27408;SDS011;20413;50.782;7.152;2022-11-14T03:43:14;11.68;;;6.53;;
27408;SDS011;20413;50.782;7.152;2022-11-14T03:45:41;9.40;;;6.13;;
27408;SDS011;20413;50.782;7.152;2022-11-14T03:48:07;9.73;;;6.15;;
27408;SDS011;20413;50.782;7.152;2022-11-14T03:50:33;9.02;;;5.95;;
27408;SDS011;20413;50.782;7.152;2022-11-14T03:52:59;10.23;;;6.28;;
27408;SDS011;20413;50.782;7.152;2022-11-14T03:55:25;11.35;;;6.90;;
27408;SDS011;20413;50.782;7.152;2022-11-14T03:57:51;8.95;;;6.05;;
27408;SDS011;20413;50.782;7.152;2022-11-14T04:00:17;11.10;;;6.72;;
27408;SDS011;20413;50.782;7.152;2022-11-14T04:02:44;8.95;;;6.43;;
27408;SDS011;20413;50.782;7.152;2022-11-14T04:05:10;8.13;;;6.10;;
27408;SDS011;20413;50.782;7.152;2022-11-14T04:07:36;8.70;;;5.90;;
27408;SDS011;20413;50.782;7.152;2022-11-14T04:10:02;8.63;;;5.68;;
27408;SDS011;20413;50.782;7.152;2022-11-14T04:12:28;9.57;;;5.93;;
27408;SDS011;20413;50.782;7.152;2022-11-14T04:14:54;8.52;;;6.07;;
27408;SDS011;20413;50.782;7.152;2022-11-14T04:17:20;9.07;;;6.18;;
27408;SDS011;20413;50.782;7.152;2022-11-14T04:19:46;10.88;;;6.10;;
27408;SDS011;20413;50.782;7.152;2022-11-14T04:22:12;9.02;;;5.97;;
27408;SDS011;20413;50.782;7.152;2022-11-14T04:24:38;8.57;;;5.78;;
27408;SDS011;20413;50.782;7.152;2022-11-14T04:27:04;10.18;;;5.75;;
27408;SDS011;20413;50.782;7.152;2022-11-14T04:29:30;9.77;;;5.78;;
27408;SDS011;20413;50.782;7.152;2022-11-14T04:31:56;9.52;;;5.68;;
27408;SDS011;20413;50.782;7.152;2022-11-14T04:34:22;9.18;;;5.75;;
27408;SDS011;20413;50.782;7.152;2022-11-14T04:36:48;7.78;;;5.80;;
27408;SDS011;20413;50.782;7.152;2022-11-14T04:39:17;8.75;;;5.38;;
27408;SDS011;20413;50.782;7.152;2022-11-14T04:41:43;8.60;;;5.38;;
27408;SDS011;20413;50.782;7.152;2022-11-14T04:44:09;9.32;;;5.75;;
27408;SDS011;20413;50.782;7.152;2022-11-14T04:46:35;7.78;;;5.78;;
27408;SDS011;20413;50.782;7.152;2022-11-14T04:49:01;11.55;;;6.25;;
27408;SDS011;20413;50.782;7.152;2022-11-14T04:51:27;10.23;;;6.20;;
27408;SDS011;20413;50.782;7.152;2022-11-14T04:53:53;10.10;;;5.82;;
27408;SDS011;20413;50.782;7.152;2022-11-14T04:56:19;9.40;;;6.22;;
27408;SDS011;20413;50.782;7.152;2022-11-14T04:58:47;9.05;;;6.10;;
27408;SDS011;20413;50.782;7.152;2022-11-14T05:01:15;8.55;;;5.95;;
27408;SDS011;20413;50.782;7.152;2022-11-14T05:03:41;9.55;;;5.63;;
27408;SDS011;20413;50.782;7.152;2022-11-14T05:06:07;8.93;;;5.78;;
27408;SDS011;20413;50.782;7.152;2022-11-14T05:08:34;9.40;;;6.35;;
27408;SDS011;20413;50.782;7.152;2022-11-14T05:11:00;8.52;;;5.97;;
27408;SDS011;20413;50.782;7.152;2022-11-14T05:13:26;10.20;;;5.82;;
27408;SDS011;20413;50.782;7.152;2022-11-14T05:15:52;8.60;;;5.72;;
27408;SDS011;20413;50.782;7.152;2022-11-14T05:18:18;9.23;;;6.65;;
27408;SDS011;20413;50.782;7.152;2022-11-14T05:20:44;9.18;;;6.60;;
27408;SDS011;20413;50.782;7.152;2022-11-14T05:23:20;11.27;;;5.68;;
27408;SDS011;20413;50.782;7.152;2022-11-14T05:25:46;12.18;;;5.97;;
27408;SDS011;20413;50.782;7.152;2022-11-14T05:28:12;9.23;;;6.53;;
27408;SDS011;20413;50.782;7.152;2022-11-14T05:30:38;8.18;;;5.43;;
27408;SDS011;20413;50.782;7.152;2022-11-14T05:33:05;9.43;;;6.75;;
27408;SDS011;20413;50.782;7.152;2022-11-14T05:35:31;10.10;;;6.55;;
27408;SDS011;20413;50.782;7.152;2022-11-14T05:37:59;10.98;;;6.47;;
27408;SDS011;20413;50.782;7.152;2022-11-14T05:40:26;14.68;;;7.10;;
27408;SDS011;20413;50.782;7.152;2022-11-14T05:42:55;10.15;;;6.60;;
27408;SDS011;20413;50.782;7.152;2022-11-14T05:45:21;9.10;;;5.93;;
27408;SDS011;20413;50.782;7.152;2022-11-14T05:47:47;11.88;;;7.00;;
27408;SDS011;20413;50.782;7.152;2022-11-14T05:50:13;10.05;;;6.28;;
27408;SDS011;20413;50.782;7.152;2022-11-14T05:52:40;9.35;;;6.10;;
27408;SDS011;20413;50.782;7.152;2022-11-14T05:55:06;11.88;;;6.60;;
27408;SDS011;20413;50.782;7.152;2022-11-14T05:57:32;13.07;;;7.45;;
27408;SDS011;20413;50.782;7.152;2022-11-14T05:59:59;10.13;;;6.28;;
27408;SDS011;20413;50.782;7.152;2022-11-14T06:02:25;11.02;;;6.82;;
27408;SDS011;20413;50.782;7.152;2022-11-14T06:04:51;11.55;;;6.65;;
27408;SDS011;20413;50.782;7.152;2022-11-14T06:07:17;15.75;;;7.18;;
27408;SDS011;20413;50.782;7.152;2022-11-14T06:09:43;11.80;;;6.30;;
27408;SDS011;20413;50.782;7.152;2022-11-14T06:12:09;12.85;;;6.95;;
27408;SDS011;20413;50.782;7.152;2022-11-14T06:14:36;10.90;;;6.35;;
27408;SDS011;20413;50.782;7.152;2022-11-14T06:17:01;12.35;;;6.47;;
27408;SDS011;20413;50.782;7.152;2022-11-14T06:19:27;14.65;;;6.47;;
27408;SDS011;20413;50.782;7.152;2022-11-14T06:21:53;11.57;;;6.18;;
27408;SDS011;20413;50.782;7.152;2022-11-14T06:24:19;11.82;;;6.68;;
27408;SDS011;20413;50.782;7.152;2022-11-14T06:26:45;10.55;;;7.18;;
27408;SDS011;20413;50.782;7.152;2022-11-14T06:29:11;17.77;;;11.57;;
27408;SDS011;20413;50.782;7.152;2022-11-14T06:31:37;23.90;;;16.73;;
27408;SDS011;20413;50.782;7.152;2022-11-14T06:34:04;19.75;;;12.73;;
27408;SDS011;20413;50.782;7.152;2022-11-14T06:36:30;12.65;;;7.70;;
27408;SDS011;20413;50.782;7.152;2022-11-14T06:38:56;13.70;;;7.75;;
27408;SDS011;20413;50.782;7.152;2022-11-14T06:41:22;13.20;;;7.15;;
27408;SDS011;20413;50.782;7.152;2022-11-14T06:43:49;16.52;;;8.85;;
27408;SDS011;20413;50.782;7.152;2022-11-14T06:46:16;11.40;;;7.40;;
27408;SDS011;20413;50.782;7.152;2022-11-14T06:48:43;13.67;;;8.47;;
27408;SDS011;20413;50.782;7.152;2022-11-14T06:51:12;17.20;;;9.50;;
27408;SDS011;20413;50.782;7.152;2022-11-14T06:53:39;13.90;;;8.40;;
27408;SDS011;20413;50.782;7.152;2022-11-14T06:58:32;12.85;;;7.72;;
27408;SDS011;20413;50.782;7.152;2022-11-14T07:01:06;12.10;;;6.78;;
27408;SDS011;20413;50.782;7.152;2022-11-14T07:03:32;15.10;;;7.85;;
27408;SDS011;20413;50.782;7.152;2022-11-14T07:06:02;16.45;;;7.72;;
27408;SDS011;20413;50.782;7.152;2022-11-14T07:08:28;11.43;;;7.68;;
27408;SDS011;20413;50.782;7.152;2022-11-14T07:10:59;15.05;;;8.52;;
27408;SDS011;20413;50.782;7.152;2022-11-14T07:13:26;17.88;;;8.90;;
27408;SDS011;20413;50.782;7.152;2022-11-14T07:15:52;16.55;;;9.10;;
27408;SDS011;20413;50.782;7.152;2022-11-14T07:18:19;19.27;;;8.65;;
27408;SDS011;20413;50.782;7.152;2022-11-14T07:20:45;16.25;;;8.48;;
27408;SDS011;20413;50.782;7.152;2022-11-14T07:23:12;18.52;;;7.88;;
27408;SDS011;20413;50.782;7.152;2022-11-14T07:25:38;13.98;;;8.15;;
27408;SDS011;20413;50.782;7.152;2022-11-14T07:28:04;13.18;;;8.32;;
27408;SDS011;20413;50.782;7.152;2022-11-14T07:30:30;15.57;;;8.18;;
27408;SDS011;20413;50.782;7.152;2022-11-14T07:32:57;15.45;;;9.18;;
27408;SDS011;20413;50.782;7.152;2022-11-14T07:35:23;17.75;;;9.05;;
27408;SDS011;20413;50.782;7.152;2022-11-14T07:37:50;15.75;;;8.80;;
27408;SDS011;20413;50.782;7.152;2022-11-14T07:40:16;17.20;;;9.38;;
27408;SDS011;20413;50.782;7.152;2022-11-14T07:42:42;16.13;;;9.15;;
27408;SDS011;20413;50.782;7.152;2022-11-14T07:45:09;16.67;;;9.02;;
27408;SDS011;20413;50.782;7.152;2022-11-14T07:47:35;17.67;;;9.43;;
27408;SDS011;20413;50.782;7.152;2022-11-14T07:50:02;18.88;;;10.23;;
27408;SDS011;20413;50.782;7.152;2022-11-14T07:52:28;19.80;;;11.30;;
27408;SDS011;20413;50.782;7.152;2022-11-14T07:54:55;19.60;;;9.68;;
27408;SDS011;20413;50.782;7.152;2022-11-14T07:57:21;20.52;;;10.05;;
27408;SDS011;20413;50.782;7.152;2022-11-14T07:59:47;21.08;;;11.27;;
27408;SDS011;20413;50.782;7.152;2022-11-14T08:02:14;20.17;;;11.55;;
27408;SDS011;20413;50.782;7.152;2022-11-14T08:04:40;19.20;;;11.10;;
27408;SDS011;20413;50.782;7.152;2022-11-14T08:07:07;21.92;;;12.43;;
27408;SDS011;20413;50.782;7.152;2022-11-14T08:09:33;21.13;;;11.63;;
27408;SDS011;20413;50.782;7.152;2022-11-14T08:11:59;25.58;;;13.30;;
27408;SDS011;20413;50.782;7.152;2022-11-14T08:14:25;24.95;;;14.25;;
27408;SDS011;20413;50.782;7.152;2022-11-14T08:16:51;26.58;;;14.23;;
27408;SDS011;20413;50.782;7.152;2022-11-14T08:19:17;26.77;;;13.65;;
27408;SDS011;20413;50.782;7.152;2022-11-14T08:21:43;28.65;;;15.43;;
27408;SDS011;20413;50.782;7.152;2022-11-14T08:24:09;32.63;;;16.27;;
27408;SDS011;20413;50.782;7.152;2022-11-14T08:26:35;28.70;;;15.40;;
27408;SDS011;20413;50.782;7.152;2022-11-14T08:29:01;28.13;;;14.32;;
27408;SDS011;20413;50.782;7.152;2022-11-14T08:31:27;28.17;;;14.55;;
27408;SDS011;20413;50.782;7.152;2022-11-14T08:33:53;27.60;;;15.35;;
27408;SDS011;20413;50.782;7.152;2022-11-14T08:36:19;26.38;;;14.52;;
27408;SDS011;20413;50.782;7.152;2022-11-14T08:38:45;32.30;;;16.10;;
27408;SDS011;20413;50.782;7.152;2022-11-14T08:41:11;36.63;;;16.83;;
27408;SDS011;20413;50.782;7.152;2022-11-14T08:43:38;30.73;;;16.17;;
27408;SDS011;20413;50.782;7.152;2022-11-14T08:46:04;33.20;;;15.55;;
27408;SDS011;20413;50.782;7.152;2022-11-14T08:48:31;29.92;;;16.25;;
27408;SDS011;20413;50.782;7.152;2022-11-14T08:51:00;30.92;;;15.02;;
27408;SDS011;20413;50.782;7.152;2022-11-14T08:53:26;37.35;;;17.00;;
27408;SDS011;20413;50.782;7.152;2022-11-14T08:55:52;30.50;;;16.15;;
27408;SDS011;20413;50.782;7.152;2022-11-14T08:58:18;35.88;;;17.67;;
27408;SDS011;20413;50.782;7.152;2022-11-14T09:00:44;32.42;;;15.98;;
27408;SDS011;20413;50.782;7.152;2022-11-14T09:03:10;32.65;;;16.00;;
27408;SDS011;20413;50.782;7.152;2022-11-14T09:05:40;33.35;;;16.60;;
27408;SDS011;20413;50.782;7.152;2022-11-14T09:08:06;32.40;;;16.17;;
27408;SDS011;20413;50.782;7.152;2022-11-14T09:10:32;31.70;;;15.85;;
27408;SDS011;20413;50.782;7.152;2022-11-14T09:12:59;35.95;;;16.98;;
27408;SDS011;20413;50.782;7.152;2022-11-14T09:15:26;39.28;;;17.48;;
27408;SDS011;20413;50.782;7.152;2022-11-14T09:17:55;41.70;;;18.45;;
27408;SDS011;20413;50.782;7.152;2022-11-14T09:20:22;36.38;;;16.98;;
27408;SDS011;20413;50.782;7.152;2022-11-14T09:22:49;39.90;;;17.00;;
27408;SDS011;20413;50.782;7.152;2022-11-14T09:25:17;36.08;;;16.92;;
27408;SDS011;20413;50.782;7.152;2022-11-14T09:27:44;39.22;;;17.02;;
27408;SDS011;20413;50.782;7.152;2022-11-14T09:30:10;40.60;;;16.98;;
27408;SDS011;20413;50.782;7.152;2022-11-14T09:32:36;34.90;;;16.27;;
27408;SDS011;20413;50.782;7.152;2022-11-14T09:35:02;46.05;;;18.80;;
27408;SDS011;20413;50.782;7.152;2022-11-14T09:37:28;41.08;;;18.35;;
27408;SDS011;20413;50.782;7.152;2022-11-14T09:39:55;40.05;;;17.77;;
27408;SDS011;20413;50.782;7.152;2022-11-14T09:44:59;36.40;;;16.50;;
27408;SDS011;20413;50.782;7.152;2022-11-14T09:47:30;37.95;;;18.33;;
27408;SDS011;20413;50.782;7.152;2022-11-14T09:50:42;42.38;;;17.35;;
27408;SDS011;20413;50.782;7.152;2022-11-14T09:52:48;39.88;;;17.90;;
27408;SDS011;20413;50.782;7.152;2022-11-14T09:55:18;36.50;;;17.55;;
27408;SDS011;20413;50.782;7.152;2022-11-14T09:57:45;36.70;;;16.73;;
27408;SDS011;20413;50.782;7.152;2022-11-14T10:02:48;39.67;;;17.58;;
27408;SDS011;20413;50.782;7.152;2022-11-14T10:07:52;33.85;;;16.65;;
27408;SDS011;20413;50.782;7.152;2022-11-14T10:10:30;33.53;;;16.73;;
27408;SDS011;20413;50.782;7.152;2022-11-14T10:15:36;33.95;;;16.23;;
27408;SDS011;20413;50.782;7.152;2022-11-14T10:20:56;34.50;;;15.93;;
27408;SDS011;20413;50.782;7.152;2022-11-14T10:25:53;37.08;;;16.77;;
27408;SDS011;20413;50.782;7.152;2022-11-14T10:30:56;35.25;;;17.13;;
27408;SDS011;20413;50.782;7.152;2022-11-14T10:33:46;32.38;;;16.10;;
27408;SDS011;20413;50.782;7.152;2022-11-14T10:36:19;33.03;;;16.10;;
27408;SDS011;20413;50.782;7.152;2022-11-14T10:38:53;35.45;;;16.90;;
27408;SDS011;20413;50.782;7.152;2022-11-14T10:41:21;30.95;;;15.68;;
27408;SDS011;20413;50.782;7.152;2022-11-14T10:43:48;29.48;;;14.80;;
27408;SDS011;20413;50.782;7.152;2022-11-14T10:46:28;38.58;;;17.13;;
27408;SDS011;20413;50.782;7.152;2022-11-14T10:48:56;34.65;;;16.45;;
27408;SDS011;20413;50.782;7.152;2022-11-14T10:51:28;33.42;;;15.52;;
27408;SDS011;20413;50.782;7.152;2022-11-14T10:53:57;33.40;;;14.90;;
27408;SDS011;20413;50.782;7.152;2022-11-14T10:56:25;31.02;;;16.02;;
27408;SDS011;20413;50.782;7.152;2022-11-14T10:58:51;34.25;;;16.23;;
27408;SDS011;20413;50.782;7.152;2022-11-14T11:04:12;34.42;;;16.92;;
27408;SDS011;20413;50.782;7.152;2022-11-14T11:06:39;33.73;;;17.03;;
27408;SDS011;20413;50.782;7.152;2022-11-14T11:09:10;35.70;;;16.85;;
27408;SDS011;20413;50.782;7.152;2022-11-14T11:11:57;32.70;;;16.88;;
27408;SDS011;20413;50.782;7.152;2022-11-14T11:14:25;35.33;;;16.83;;
27408;SDS011;20413;50.782;7.152;2022-11-14T11:19:37;30.27;;;15.93;;
27408;SDS011;20413;50.782;7.152;2022-11-14T11:22:03;33.00;;;17.35;;
27408;SDS011;20413;50.782;7.152;2022-11-14T11:24:30;35.50;;;17.73;;
27408;SDS011;20413;50.782;7.152;2022-11-14T11:29:38;33.67;;;17.15;;
27408;SDS011;20413;50.782;7.152;2022-11-14T11:32:06;31.38;;;16.77;;
27408;SDS011;20413;50.782;7.152;2022-11-14T11:34:33;29.08;;;15.98;;
27408;SDS011;20413;50.782;7.152;2022-11-14T11:37:02;31.13;;;16.35;;
27408;SDS011;20413;50.782;7.152;2022-11-14T11:39:29;33.83;;;16.92;;
27408;SDS011;20413;50.782;7.152;2022-11-14T11:41:57;31.75;;;16.90;;
27408;SDS011;20413;50.782;7.152;2022-11-14T11:44:26;31.15;;;16.23;;
27408;SDS011;20413;50.782;7.152;2022-11-14T11:46:57;33.13;;;17.42;;
27408;SDS011;20413;50.782;7.152;2022-11-14T11:52:15;38.53;;;16.10;;
27408;SDS011;20413;50.782;7.152;2022-11-14T11:54:54;37.42;;;17.90;;
27408;SDS011;20413;50.782;7.152;2022-11-14T11:57:25;32.63;;;15.85;;
27408;SDS011;20413;50.782;7.152;2022-11-14T11:59:56;36.28;;;17.40;;
27408;SDS011;20413;50.782;7.152;2022-11-14T12:02:24;34.50;;;16.15;;
27408;SDS011;20413;50.782;7.152;2022-11-14T12:04:51;31.67;;;16.08;;
27408;SDS011;20413;50.782;7.152;2022-11-14T12:07:18;37.20;;;17.25;;
27408;SDS011;20413;50.782;7.152;2022-11-14T12:09:45;30.33;;;15.65;;
27408;SDS011;20413;50.782;7.152;2022-11-14T12:12:21;32.22;;;16.80;;
27408;SDS011;20413;50.782;7.152;2022-11-14T12:24:50;32.95;;;15.85;;
27408;SDS011;20413;50.782;7.152;2022-11-14T12:32:31;32.10;;;16.08;;
27408;SDS011;20413;50.782;7.152;2022-11-14T12:34:58;30.80;;;15.00;;
27408;SDS011;20413;50.782;7.152;2022-11-14T12:37:35;31.65;;;15.25;;
27408;SDS011;20413;50.782;7.152;2022-11-14T12:40:05;29.15;;;15.23;;
27408;SDS011;20413;50.782;7.152;2022-11-14T12:42:32;30.02;;;15.95;;
27408;SDS011;20413;50.782;7.152;2022-11-14T12:44:59;30.10;;;14.80;;
27408;SDS011;20413;50.782;7.152;2022-11-14T12:47:28;31.50;;;15.10;;
27408;SDS011;20413;50.782;7.152;2022-11-14T12:52:40;29.55;;;15.10;;
27408;SDS011;20413;50.782;7.152;2022-11-14T12:58:07;30.08;;;15.25;;
27408;SDS011;20413;50.782;7.152;2022-11-14T13:00:36;29.00;;;16.20;;
27408;SDS011;20413;50.782;7.152;2022-11-14T13:05:49;32.72;;;15.75;;
27408;SDS011;20413;50.782;7.152;2022-11-14T13:08:21;31.63;;;16.20;;
27408;SDS011;20413;50.782;7.152;2022-11-14T13:10:52;29.33;;;16.25;;
27408;SDS011;20413;50.782;7.152;2022-11-14T13:13:18;30.17;;;16.48;;
27408;SDS011;20413;50.782;7.152;2022-11-14T13:16:03;35.30;;;18.13;;
27408;SDS011;20413;50.782;7.152;2022-11-14T13:18:52;35.90;;;17.77;;
27408;SDS011;20413;50.782;7.152;2022-11-14T13:21:37;31.88;;;16.70;;
27408;SDS011;20413;50.782;7.152;2022-11-14T13:24:13;34.58;;;18.08;;
27408;SDS011;20413;50.782;7.152;2022-11-14T13:31:54;33.55;;;17.95;;
27408;SDS011;20413;50.782;7.152;2022-11-14T13:34:37;32.63;;;17.67;;
27408;SDS011;20413;50.782;7.152;2022-11-14T13:37:14;37.33;;;18.02;;
27408;SDS011;20413;50.782;7.152;2022-11-14T13:39:44;32.15;;;17.27;;
27408;SDS011;20413;50.782;7.152;2022-11-14T13:52:49;34.03;;;17.98;;
27408;SDS011;20413;50.782;7.152;2022-11-14T13:55:17;34.03;;;17.50;;
27408;SDS011;20413;50.782;7.152;2022-11-14T14:00:11;34.67;;;17.27;;
27408;SDS011;20413;50.782;7.152;2022-11-14T14:13:04;35.22;;;17.45;;
27408;SDS011;20413;50.782;7.152;2022-11-14T14:26:09;30.25;;;16.88;;
27408;SDS011;20413;50.782;7.152;2022-11-14T14:33:42;30.20;;;17.05;;
27408;SDS011;20413;50.782;7.152;2022-11-14T14:36:24;29.80;;;15.50;;
27408;SDS011;20413;50.782;7.152;2022-11-14T14:39:06;28.23;;;16.25;;
27408;SDS011;20413;50.782;7.152;2022-11-14T14:41:34;27.92;;;15.90;;
27408;SDS011;20413;50.782;7.152;2022-11-14T14:44:00;29.92;;;15.55;;
27408;SDS011;20413;50.782;7.152;2022-11-14T14:46:30;32.28;;;16.67;;
27408;SDS011;20413;50.782;7.152;2022-11-14T14:48:56;27.92;;;15.30;;
27408;SDS011;20413;50.782;7.152;2022-11-14T14:51:33;27.65;;;15.02;;
27408;SDS011;20413;50.782;7.152;2022-11-14T14:54:00;31.55;;;16.13;;
27408;SDS011;20413;50.782;7.152;2022-11-14T14:56:26;28.65;;;15.98;;
27408;SDS011;20413;50.782;7.152;2022-11-14T14:58:52;28.55;;;16.10;;
27408;SDS011;20413;50.782;7.152;2022-11-14T15:01:23;27.83;;;15.05;;
27408;SDS011;20413;50.782;7.152;2022-11-14T15:03:52;27.60;;;15.65;;
27408;SDS011;20413;50.782;7.152;2022-11-14T15:06:24;29.55;;;15.30;;
27408;SDS011;20413;50.782;7.152;2022-11-14T15:08:54;26.60;;;15.93;;
27408;SDS011;20413;50.782;7.152;2022-11-14T15:11:20;25.23;;;14.98;;
27408;SDS011;20413;50.782;7.152;2022-11-14T15:13:48;27.67;;;15.02;;
27408;SDS011;20413;50.782;7.152;2022-11-14T15:16:14;23.50;;;13.88;;
27408;SDS011;20413;50.782;7.152;2022-11-14T15:18:41;26.10;;;14.80;;
27408;SDS011;20413;50.782;7.152;2022-11-14T15:21:11;27.42;;;15.40;;
27408;SDS011;20413;50.782;7.152;2022-11-14T15:23:39;26.13;;;14.40;;
27408;SDS011;20413;50.782;7.152;2022-11-14T15:26:17;24.63;;;14.32;;
27408;SDS011;20413;50.782;7.152;2022-11-14T15:28:43;24.27;;;14.90;;
27408;SDS011;20413;50.782;7.152;2022-11-14T15:31:17;23.30;;;14.48;;
27408;SDS011;20413;50.782;7.152;2022-11-14T15:33:43;26.52;;;14.18;;
27408;SDS011;20413;50.782;7.152;2022-11-14T15:36:11;31.02;;;15.13;;
27408;SDS011;20413;50.782;7.152;2022-11-14T15:38:37;23.75;;;14.40;;
27408;SDS011;20413;50.782;7.152;2022-11-14T15:41:20;26.48;;;14.50;;
27408;SDS011;20413;50.782;7.152;2022-11-14T15:43:47;25.13;;;14.55;;
27408;SDS011;20413;50.782;7.152;2022-11-14T15:51:37;23.92;;;13.88;;
27408;SDS011;20413;50.782;7.152;2022-11-14T15:54:03;26.00;;;15.38;;
27408;SDS011;20413;50.782;7.152;2022-11-14T15:56:30;27.20;;;14.23;;
27408;SDS011;20413;50.782;7.152;2022-11-14T15:58:57;24.17;;;14.55;;
27408;SDS011;20413;50.782;7.152;2022-11-14T16:01:23;22.58;;;13.50;;
27408;SDS011;20413;50.782;7.152;2022-11-14T16:03:52;26.95;;;14.85;;
27408;SDS011;20413;50.782;7.152;2022-11-14T16:06:18;28.92;;;14.70;;
27408;SDS011;20413;50.782;7.152;2022-11-14T16:08:44;26.30;;;14.05;;
27408;SDS011;20413;50.782;7.152;2022-11-14T16:11:10;25.40;;;13.48;;
27408;SDS011;20413;50.782;7.152;2022-11-14T16:13:37;25.80;;;14.23;;
27408;SDS011;20413;50.782;7.152;2022-11-14T16:16:03;24.90;;;14.52;;
27408;SDS011;20413;50.782;7.152;2022-11-14T16:18:29;24.80;;;14.13;;
27408;SDS011;20413;50.782;7.152;2022-11-14T16:20:55;23.58;;;14.13;;
27408;SDS011;20413;50.782;7.152;2022-11-14T16:23:23;23.33;;;13.75;;